Terminal Aerodrome Forecast
Issued by NWS Sterling, VA

Current Version | Previous Version | Graphics & Text | Print | Product List | Glossary On
Versions: 1 2 3 4 5 6 7 8 9 10 11 12 13 14 15 16 17 18 19 20 21 22 23 24 25 26 27 28
000
FTUS41 KLWX 301120
TAFDCA
TAF
KDCA 301120Z 3012/0112 00000KT P6SM SCT080 BKN200
     FM301700 14006KT P6SM BKN050
     FM302200 09007KT P6SM SHRA OVC050
     FM010400 06011KT P6SM -SHRA OVC080=

USA.gov is the U.S. government's official web portal to all federal, state and local government web resources and services.